Time;durP1;ratioP1;P1;durP2;ratioP2;P2;SDS_P1;SDS_P2;PMS_P1;PMS_P2;Temp;Humidity;BMP_temperature;BMP_pressure;BME280_temperature;BME280_humidity;BME280_pressure;Samples;Min_cycle;Max_cycle;Signal;HPM_P1;HPM_P2
2022/08/15 00:01:10;;;;;;;8.02;7.32;;;20.10;99.90;;;;;;6059833;23;20046;-81
2022/08/15 00:03:44;;;;;;;8.25;7.53;;;20.10;99.90;;;;;;6060338;23;20022;-81
2022/08/15 00:06:13;;;;;;;9.02;8.23;;;19.90;99.90;;;;;;6059298;23;20023;-81
2022/08/15 00:08:45;;;;;;;8.10;7.30;;;19.90;99.90;;;;;;6058440;23;20019;-82
2022/08/15 00:11:26;;;;;;;9.35;7.90;;;19.90;99.90;;;;;;6059547;23;20103;-82
2022/08/15 00:13:58;;;;;;;8.18;7.57;;;19.80;99.90;;;;;;6057827;23;20061;-81
2022/08/15 00:16:27;;;;;;;8.70;7.90;;;19.80;99.90;;;;;;6059213;23;20022;-81
2022/08/15 00:18:53;;;;;;;8.25;7.50;;;19.90;99.90;;;;;;6058226;23;20019;-80
2022/08/15 00:21:20;;;;;;;7.88;7.28;;;19.80;99.90;;;;;;6060555;23;20550;-81
2022/08/15 00:23:46;;;;;;;8.60;7.80;;;19.90;99.90;;;;;;6059521;23;20368;-81
2022/08/15 00:26:13;;;;;;;8.48;7.38;;;19.80;99.90;;;;;;6059719;23;20023;-81
2022/08/15 00:28:39;;;;;;;9.48;8.48;;;19.60;99.90;;;;;;6060380;23;20011;-81
2022/08/15 00:31:06;;;;;;;8.90;8.10;;;19.60;99.90;;;;;;6059454;23;20138;-81
2022/08/15 00:33:33;;;;;;;9.20;7.95;;;19.50;99.90;;;;;;6060013;23;20025;-78
2022/08/15 00:35:59;;;;;;;9.30;8.30;;;19.50;99.90;;;;;;6057905;23;20019;-82
2022/08/15 00:38:27;;;;;;;9.20;8.30;;;19.60;99.90;;;;;;6064071;23;20099;-81
2022/08/15 00:43:48;;;;;;;8.93;7.47;;;19.70;99.90;;;;;;6058965;23;20150;-81
2022/08/15 00:46:16;;;;;;;8.75;7.93;;;20.00;99.90;;;;;;6059171;23;20014;-82
2022/08/15 00:48:42;;;;;;;8.70;7.90;;;19.80;99.90;;;;;;6057142;23;20364;-81
2022/08/15 00:51:18;;;;;;;9.15;8.23;;;19.80;99.90;;;;;;6058967;23;20126;-82
2022/08/15 00:53:52;;;;;;;9.88;8.60;;;19.70;99.90;;;;;;6035427;23;20022;-79
2022/08/15 00:56:19;;;;;;;10.00;8.10;;;19.90;99.90;;;;;;6058225;23;20452;-82
2022/08/15 00:58:45;;;;;;;11.73;8.45;;;19.90;99.90;;;;;;6058160;23;20019;-81
2022/08/15 01:01:15;;;;;;;11.85;8.05;;;19.90;99.90;;;;;;6059586;23;20021;-79
2022/08/15 01:03:48;;;;;;;8.85;8.05;;;19.90;99.90;;;;;;6059458;23;20051;-80
2022/08/15 01:06:24;;;;;;;9.80;7.85;;;20.00;99.90;;;;;;6059165;23;20022;-81
2022/08/15 01:08:50;;;;;;;8.02;7.30;;;20.00;99.90;;;;;;6033490;23;20019;-81
2022/08/15 01:11:34;;;;;;;8.70;7.82;;;20.10;99.90;;;;;;6059663;23;20409;-81
2022/08/15 01:14:07;;;;;;;9.40;8.50;;;20.10;99.90;;;;;;6036399;23;20106;-82
2022/08/15 01:16:40;;;;;;;7.57;6.97;;;20.60;99.90;;;;;;6033756;23;20070;-82
2022/08/15 01:19:18;;;;;;;8.10;7.18;;;20.20;99.90;;;;;;6033748;23;20081;-81
2022/08/15 01:21:54;;;;;;;8.95;8.20;;;20.30;99.90;;;;;;6035868;23;20018;-81
2022/08/15 01:24:52;;;;;;;12.23;8.10;;;20.10;99.90;;;;;;6034335;23;20028;-81
2022/08/15 01:27:55;;;;;;;10.18;7.72;;;20.30;99.90;;;;;;6061224;23;20018;-81
2022/08/15 01:30:39;;;;;;;8.38;7.68;;;20.30;99.90;;;;;;6058466;23;20015;-81
2022/08/15 01:33:11;;;;;;;8.32;7.63;;;20.00;99.90;;;;;;6056660;23;20019;-81
2022/08/15 01:35:40;;;;;;;9.02;8.23;;;20.10;99.90;;;;;;6057968;23;20479;-81
2022/08/15 01:38:20;;;;;;;9.27;8.05;;;20.40;99.90;;;;;;6035301;23;20022;-82
2022/08/15 01:41:32;;;;;;;8.38;7.65;;;20.40;99.90;;;;;;6034065;23;20498;-81
2022/08/15 01:44:45;;;;;;;7.40;6.80;;;20.50;99.90;;;;;;6022976;23;20384;-81
2022/08/15 01:47:31;;;;;;;9.63;8.23;;;20.60;99.90;;;;;;5897164;24;20029;-82
2022/08/15 01:50:11;;;;;;;8.38;7.47;;;21.00;99.90;;;;;;5972520;23;20404;-80
2022/08/15 01:52:46;;;;;;;10.32;8.00;;;20.60;99.90;;;;;;6058110;23;20054;-81
2022/08/15 01:55:14;;;;;;;7.97;7.15;;;20.60;99.90;;;;;;6058456;23;20023;-79
2022/08/15 01:57:39;;;;;;;9.50;7.40;;;20.60;99.90;;;;;;6059260;23;20431;-82
2022/08/15 02:00:10;;;;;;;7.60;6.90;;;20.60;99.90;;;;;;6056975;23;20015;-77
2022/08/15 02:02:37;;;;;;;7.93;7.22;;;20.60;99.90;;;;;;6057767;23;20023;-83
2022/08/15 02:05:05;;;;;;;8.23;7.63;;;20.60;99.90;;;;;;6057399;23;20019;-83
2022/08/15 02:07:32;;;;;;;8.02;7.32;;;20.60;99.90;;;;;;6058944;23;20022;-83
2022/08/15 02:09:58;;;;;;;11.05;8.10;;;20.70;99.90;;;;;;6058242;23;20019;-83
2022/08/15 02:12:33;;;;;;;8.20;7.45;;;20.70;99.90;;;;;;6058893;23;20019;-84
2022/08/15 02:15:25;;;;;;;8.50;7.35;;;20.80;99.90;;;;;;6057596;23;20019;-84
2022/08/15 02:17:51;;;;;;;8.25;7.43;;;20.80;99.90;;;;;;6053013;23;20106;-84
2022/08/15 02:20:18;;;;;;;8.00;7.15;;;20.80;99.90;;;;;;6056731;23;20094;-83
2022/08/15 02:22:44;;;;;;;7.38;6.78;;;20.90;99.90;;;;;;6035373;23;20019;-84
2022/08/15 02:25:11;;;;;;;7.35;6.80;;;20.90;99.90;;;;;;6058302;23;20330;-83
2022/08/15 02:27:38;;;;;;;8.00;7.22;;;21.00;99.90;;;;;;6035837;23;20027;-83
2022/08/15 02:30:13;;;;;;;8.07;7.38;;;20.90;99.90;;;;;;6055657;23;20713;-83
2022/08/15 02:32:40;;;;;;;;;;;21.00;99.90;;;;;;6035851;23;20053;-83
2022/08/15 02:35:12;;;;;;;6.72;6.22;;;21.00;99.90;;;;;;6034534;23;19921;-84
2022/08/15 02:37:38;;;;;;;6.82;6.22;;;21.10;99.90;;;;;;6059855;23;20025;-84
2022/08/15 02:40:07;;;;;;;7.93;7.07;;;21.10;99.90;;;;;;6054967;23;20325;-81
2022/08/15 02:42:36;;;;;;;7.95;7.07;;;21.10;99.90;;;;;;6035157;23;20400;-83
2022/08/15 02:45:04;;;;;;;7.70;6.43;;;21.10;99.90;;;;;;6058159;23;20027;-83
2022/08/15 02:47:30;;;;;;;7.55;6.82;;;21.10;99.90;;;;;;6060365;23;20026;-84
2022/08/15 02:49:57;;;;;;;8.02;6.53;;;21.10;99.90;;;;;;6058159;23;20031;-84
2022/08/15 02:52:22;;;;;;;7.97;7.20;;;20.80;99.90;;;;;;6057559;23;20062;-82
2022/08/15 02:54:49;;;;;;;7.38;6.68;;;21.00;99.90;;;;;;6057644;23;20468;-84
2022/08/15 02:57:56;;;;;;;7.43;6.82;;;21.00;99.90;;;;;;6058997;23;20388;-84
2022/08/15 03:01:10;;;;;;;7.55;6.90;;;20.80;99.90;;;;;;6044152;23;20190;-82
2022/08/15 03:03:51;;;;;;;;;;;;;;;;;;;;;
2022/08/15 03:06:30;;;;;;;6.90;6.30;;;20.50;99.90;;;;;;6056928;23;20046;-83
2022/08/15 03:09:07;;;;;;;7.50;6.80;;;20.70;99.90;;;;;;6058673;23;20014;-84
2022/08/15 03:11:38;;;;;;;7.80;7.13;;;20.40;99.90;;;;;;6033916;23;20018;-84
2022/08/15 03:14:07;;;;;;;8.05;7.25;;;20.20;99.90;;;;;;6034360;23;20019;-83
2022/08/15 03:17:17;;;;;;;7.65;6.85;;;20.20;99.90;;;;;;6032803;23;20022;-82
2022/08/15 03:20:08;;;;;;;6.80;6.15;;;20.20;99.90;;;;;;6034526;23;20093;-83
2022/08/15 03:22:59;;;;;;;;;;;;;;;;;;;;;
2022/08/15 03:25:49;;;;;;;8.00;7.20;;;20.10;99.90;;;;;;6057032;23;20041;-83
2022/08/15 03:29:02;;;;;;;9.43;6.72;;;20.00;99.90;;;;;;6041842;23;20384;-82
2022/08/15 03:31:34;;;;;;;7.22;6.68;;;19.90;99.90;;;;;;5947828;24;20024;-83
2022/08/15 03:34:03;;;;;;;7.25;6.55;;;20.10;99.90;;;;;;5965583;23;20022;-84
2022/08/15 03:36:40;;;;;;;8.30;6.97;;;19.80;99.90;;;;;;6056900;23;20023;-83
2022/08/15 03:39:12;;;;;;;7.60;7.00;;;19.80;99.90;;;;;;6056825;23;20242;-84
2022/08/15 03:41:53;;;;;;;;;;;;;;;;;;;;;
2022/08/15 03:44:51;;;;;;;7.95;7.13;;;19.70;99.90;;;;;;6057968;23;20019;-84
2022/08/15 03:47:17;;;;;;;7.70;7.03;;;19.60;99.90;;;;;;6044681;23;20884;-83
2022/08/15 03:49:52;;;;;;;9.13;7.47;;;19.50;99.90;;;;;;6057059;23;20015;-81
2022/08/15 03:52:19;;;;;;;8.88;7.75;;;19.40;99.90;;;;;;6058698;23;20070;-82
2022/08/15 03:54:54;;;;;;;22.30;8.05;;;19.40;99.90;;;;;;6057305;23;20023;-83
2022/08/15 03:57:28;;;;;;;8.73;8.02;;;19.40;99.90;;;;;;6057612;23;20026;-83
2022/08/15 04:00:37;;;;;;;9.90;8.52;;;19.40;99.90;;;;;;6058034;23;20022;-82
2022/08/15 04:03:25;;;;;;;8.90;8.00;;;19.40;99.90;;;;;;6059565;23;20015;-83
2022/08/15 04:05:58;;;;;;;9.68;8.45;;;19.60;99.90;;;;;;6058408;23;20519;-83
2022/08/15 04:08:26;;;;;;;12.68;8.95;;;19.40;99.90;;;;;;6035159;23;20019;-81
2022/08/15 04:10:52;;;;;;;9.43;8.40;;;19.40;99.90;;;;;;6058641;23;20078;-84
2022/08/15 04:13:24;;;;;;;8.15;7.47;;;19.40;99.90;;;;;;6056446;23;20073;-84
2022/08/15 04:15:51;;;;;;;14.90;8.85;;;19.30;99.90;;;;;;6033026;23;20023;-84
2022/08/15 04:18:16;;;;;;;11.98;8.30;;;19.20;99.90;;;;;;6057917;23;20550;-84
2022/08/15 04:20:43;;;;;;;13.48;9.70;;;19.20;99.90;;;;;;6057245;23;20019;-81
2022/08/15 04:23:09;;;;;;;21.27;9.93;;;19.10;99.90;;;;;;6058829;23;20019;-83
2022/08/15 04:25:38;;;;;;;12.30;9.90;;;19.00;99.90;;;;;;6057882;23;20466;-83
2022/08/15 04:28:07;;;;;;;10.73;8.50;;;18.90;99.90;;;;;;6058026;23;20044;-83
2022/08/15 04:30:39;;;;;;;8.23;7.53;;;18.80;99.90;;;;;;6034036;23;20098;-80
2022/08/15 04:33:07;;;;;;;13.85;8.65;;;18.90;99.90;;;;;;6035200;23;20022;-81
2022/08/15 04:35:34;;;;;;;12.73;8.50;;;18.90;99.90;;;;;;6035463;23;20393;-83
2022/08/15 04:38:03;;;;;;;11.55;8.68;;;18.90;99.90;;;;;;6037997;23;20018;-82
2022/08/15 04:40:30;;;;;;;9.20;8.40;;;19.00;99.90;;;;;;6060781;23;20071;-82
2022/08/15 04:42:58;;;;;;;9.23;8.30;;;19.00;99.90;;;;;;6060123;23;20022;-83
2022/08/15 04:45:25;;;;;;;13.40;8.63;;;18.90;99.90;;;;;;6059264;23;20030;-82
2022/08/15 04:48:04;;;;;;;13.10;8.05;;;19.00;99.90;;;;;;6059767;23;20019;-83
2022/08/15 04:50:32;;;;;;;9.52;8.82;;;19.20;99.90;;;;;;6056372;23;20015;-83
2022/08/15 04:53:00;;;;;;;10.57;9.57;;;19.40;99.90;;;;;;6059183;23;20102;-81
2022/08/15 04:55:27;;;;;;;11.90;10.55;;;19.40;99.90;;;;;;5997988;23;20022;-82
2022/08/15 04:57:54;;;;;;;12.73;11.52;;;19.50;99.90;;;;;;6070180;23;20066;-82
2022/08/15 05:00:40;;;;;;;11.50;10.35;;;19.60;99.90;;;;;;6070500;23;20015;-82
2022/08/15 05:03:08;;;;;;;11.25;10.27;;;19.60;99.90;;;;;;6070649;23;20149;-82
2022/08/15 05:05:47;;;;;;;10.52;9.48;;;19.60;99.90;;;;;;6064988;23;20019;-83
2022/08/15 05:08:38;;;;;;;10.00;9.02;;;19.60;99.90;;;;;;6037806;23;20029;-83
2022/08/15 05:11:23;;;;;;;12.10;9.00;;;19.80;99.90;;;;;;6056513;23;20123;-82
2022/08/15 05:13:58;;;;;;;14.15;9.27;;;19.80;99.90;;;;;;6035655;23;20019;-80
2022/08/15 05:16:25;;;;;;;;;;;19.90;99.90;;;;;;6012396;23;20019;-82
2022/08/15 05:19:06;;;;;;;11.60;8.25;;;20.00;99.90;;;;;;6034222;23;19925;-83
2022/08/15 05:21:48;;;;;;;14.38;8.25;;;20.00;99.90;;;;;;6059829;23;20113;-83
2022/08/15 05:24:56;;;;;;;;;;;;;;;;;;;;;
2022/08/15 05:27:11;;;;;;;12.95;8.35;;;20.00;99.90;;;;;;6052122;23;20058;-82
2022/08/15 05:30:02;;;;;;;;;;;;;;;;;;;;;
2022/08/15 05:37:33;;;;;;;;;;;;;;;;;;;;;
2022/08/15 05:40:55;;;;;;;;;;;;;;;;;;;;;
2022/08/15 05:44:22;;;;;;;;;;;;;;;;;;;;;
2022/08/15 05:47:35;;;;;;;9.10;7.75;;;20.50;99.90;;;;;;5990916;23;20051;-82
2022/08/15 05:50:29;;;;;;;;;;;;;;;;;;;;;
2022/08/15 05:53:37;;;;;;;10.57;7.85;;;21.40;99.90;;;;;;6067479;23;20045;-83
2022/08/15 05:56:43;;;;;;;12.98;8.70;;;21.30;99.90;;;;;;6020055;23;20023;-81
2022/08/15 05:59:14;;;;;;;;;;;21.50;99.90;;;;;;5909197;23;20018;-81
2022/08/15 06:13:58;;;;;;;10.27;9.05;;;21.70;99.90;;;;;;5976894;23;20121;-81
2022/08/15 06:17:28;;;;;;;11.10;9.88;;;21.80;99.90;;;;;;5942854;24;20038;-82
2022/08/15 06:21:26;;;;;;;11.38;9.52;;;22.10;99.90;;;;;;5887334;24;20054;-82
2022/08/15 06:25:25;;;;;;;15.25;10.40;;;22.40;99.90;;;;;;5884912;24;20494;-82
2022/08/15 06:29:47;;;;;;;;;;;;;;;;;;;;;
2022/08/15 06:37:35;;;;;;;;;;;;;;;;;;;;;
2022/08/15 06:41:21;;;;;;;16.95;8.85;;;22.70;99.90;;;;;;5832365;24;20232;-83
2022/08/15 06:44:42;;;;;;;;;;;;;;;;;;;;;
2022/08/15 06:47:48;;;;;;;;;;;;;;;;;;;;;
2022/08/15 06:51:05;;;;;;;11.65;9.40;;;22.70;99.90;;;;;;5952591;23;20023;-82
2022/08/15 06:54:44;;;;;;;14.88;8.68;;;22.70;99.90;;;;;;5888587;24;20562;-82
2022/08/15 07:01:52;;;;;;;12.23;9.07;;;23.30;99.90;;;;;;5838292;24;20029;-82
2022/08/15 07:08:43;;;;;;;9.77;8.98;;;24.40;99.90;;;;;;5862644;24;20032;-83
2022/08/15 07:11:40;;;;;;;9.10;8.18;;;25.30;99.90;;;;;;5938919;23;20114;-83
2022/08/15 07:14:06;;;;;;;8.68;7.85;;;25.30;99.90;;;;;;5981317;23;20719;-81
2022/08/15 07:16:48;;;;;;;8.65;7.82;;;25.90;99.90;;;;;;5982688;23;20035;-81
2022/08/15 07:19:15;;;;;;;9.88;8.10;;;26.10;99.90;;;;;;6007842;23;20020;-82
2022/08/15 07:21:41;;;;;;;9.38;8.43;;;26.50;99.90;;;;;;5959344;23;20031;-81
2022/08/15 07:24:16;;;;;;;15.88;8.45;;;26.70;99.90;;;;;;6005871;23;20022;-81
2022/08/15 07:27:05;;;;;;;11.00;10.00;;;27.00;99.90;;;;;;5982827;23;20050;-80
2022/08/15 07:29:41;;;;;;;8.73;7.93;;;27.30;99.90;;;;;;5959589;23;20035;-83
2022/08/15 07:32:33;;;;;;;9.27;7.80;;;27.20;99.90;;;;;;5981923;23;20069;-82
2022/08/15 07:35:35;;;;;;;9.20;8.38;;;27.30;99.90;;;;;;5986652;23;20026;-81
2022/08/15 07:38:04;;;;;;;9.50;8.35;;;27.00;99.90;;;;;;6033680;23;20051;-80
2022/08/15 07:40:36;;;;;;;11.88;8.55;;;26.90;99.90;;;;;;6013518;23;20027;-78
2022/08/15 07:43:05;;;;;;;8.85;7.95;;;26.80;99.90;;;;;;6008968;23;20025;-77
2022/08/15 07:45:45;;;;;;;8.50;7.70;;;26.70;99.90;;;;;;6006385;23;20656;-82
2022/08/15 07:56:50;;;;;;;12.77;9.02;;;26.60;99.90;;;;;;5894749;24;20112;-82
2022/08/15 07:59:38;;;;;;;10.18;9.23;;;26.70;99.90;;;;;;5915857;24;20024;-83
2022/08/15 08:02:50;;;;;;;11.00;8.98;;;26.60;99.90;;;;;;5880896;24;20016;-83
2022/08/15 08:06:02;;;;;;;10.73;9.00;;;26.40;99.90;;;;;;5944402;24;20025;-83
2022/08/15 08:08:44;;;;;;;9.80;8.80;;;26.20;99.90;;;;;;5876550;23;20107;-81
2022/08/15 08:12:07;;;;;;;9.40;8.55;;;26.20;99.90;;;;;;6009848;23;20240;-83
2022/08/15 08:15:29;;;;;;;10.25;9.30;;;26.20;99.90;;;;;;6007390;23;20023;-82
2022/08/15 08:22:20;;;;;;;10.82;9.52;;;26.20;99.90;;;;;;5915669;24;20123;-81
2022/08/15 08:25:02;;;;;;;16.08;11.38;;;26.00;99.90;;;;;;5953840;23;20020;-82
2022/08/15 08:27:49;;;;;;;11.00;9.98;;;25.90;99.90;;;;;;6029945;23;20051;-82
2022/08/15 08:30:29;;;;;;;11.63;10.43;;;25.90;99.90;;;;;;6035089;23;20023;-80
2022/08/15 08:33:20;;;;;;;16.95;14.82;;;25.60;99.90;;;;;;6010841;23;20019;-83
2022/08/15 08:36:06;;;;;;;17.92;15.43;;;25.50;99.90;;;;;;6008850;23;20476;-83
2022/08/15 08:38:41;;;;;;;14.50;11.60;;;25.30;99.90;;;;;;6008502;23;20592;-82
2022/08/15 08:41:45;;;;;;;13.52;11.68;;;25.60;99.90;;;;;;6028392;23;20098;-82
2022/08/15 08:59:38;;;;;;;14.73;11.18;;;26.50;99.90;;;;;;6057183;23;20010;-84
2022/08/15 09:06:30;;;;;;;11.07;10.05;;;26.60;99.90;;;;;;5975863;24;20055;-82
2022/08/15 09:09:07;;;;;;;13.90;10.77;;;26.50;99.90;;;;;;5950608;24;20031;-83
2022/08/15 09:11:36;;;;;;;11.90;10.23;;;26.60;99.90;;;;;;5953825;24;20020;-79
2022/08/15 09:14:11;;;;;;;11.38;10.27;;;26.70;99.90;;;;;;5949433;24;20027;-79
2022/08/15 09:16:38;;;;;;;14.25;9.90;;;26.90;99.90;;;;;;5946111;24;20020;-79
2022/08/15 09:19:33;;;;;;;12.23;9.73;;;27.10;99.90;;;;;;5976119;23;20052;-79
2022/08/15 09:21:59;;;;;;;9.88;9.02;;;27.10;99.90;;;;;;6008309;23;20015;-83
2022/08/15 09:24:24;;;;;;;11.07;9.95;;;27.30;99.90;;;;;;6009435;23;20053;-80
2022/08/15 09:27:25;;;;;;;11.25;9.88;;;27.40;99.90;;;;;;6032230;23;20417;-80
2022/08/15 09:29:57;;;;;;;10.02;8.98;;;27.70;99.90;;;;;;6033017;23;20022;-80
2022/08/15 09:32:29;;;;;;;13.90;11.85;;;27.70;99.90;;;;;;6036186;23;20022;-82
2022/08/15 09:35:18;;;;;;;13.95;9.50;;;27.70;99.90;;;;;;6016581;23;20015;-81
2022/08/15 09:49:07;;;;;;;;;;;;;;;;;;;;;
2022/08/15 09:55:46;;;;;;;15.55;12.20;;;27.40;99.60;;;;;;5945982;24;20020;-83
2022/08/15 09:58:20;;;;;;;13.90;11.63;;;27.40;99.90;;;;;;5799844;24;20027;-81
2022/08/15 10:01:19;;;;;;;14.02;12.68;;;27.00;99.90;;;;;;5880386;24;20103;-80
2022/08/15 10:03:58;;;;;;;13.93;11.85;;;26.90;99.90;;;;;;6020459;23;20055;-81
2022/08/15 10:07:04;;;;;;;15.27;13.20;;;26.80;99.90;;;;;;6044296;23;20014;-81
2022/08/15 10:10:39;;;;;;;;;;;;;;;;;;;;;
2022/08/15 10:25:42;;;;;;;16.67;13.80;;;26.70;99.90;;;;;;6017660;23;20023;-80
2022/08/15 10:29:33;;;;;;;14.55;11.57;;;26.60;99.90;;;;;;6036114;23;20026;-80
2022/08/15 10:32:48;;;;;;;14.20;12.77;;;26.40;99.90;;;;;;6015290;23;20041;-81
2022/08/15 10:36:02;;;;;;;26.75;13.43;;;26.30;99.90;;;;;;5984036;23;20156;-81
2022/08/15 10:38:52;;;;;;;22.38;13.38;;;26.20;99.90;;;;;;5987888;23;20122;-80
2022/08/15 10:49:24;;;;;;;15.10;13.70;;;25.50;99.90;;;;;;6000652;23;20023;-83
2022/08/15 11:00:51;;;;;;;16.42;13.20;;;25.10;99.90;;;;;;5885806;24;20057;-81
2022/08/15 11:04:09;;;;;;;13.60;12.40;;;25.10;99.90;;;;;;5963699;24;20030;-87
2022/08/15 11:06:46;;;;;;;13.80;12.60;;;25.10;99.90;;;;;;5949717;24;20021;-82
2022/08/15 11:09:18;;;;;;;13.63;12.52;;;25.40;99.90;;;;;;5990795;23;20026;-83
2022/08/15 11:12:00;;;;;;;13.40;12.00;;;25.20;99.90;;;;;;6104619;23;20418;-81
2022/08/15 11:14:39;;;;;;;12.55;11.45;;;25.20;99.90;;;;;;6106156;23;20028;-81
2022/08/15 11:18:03;;;;;;;;;;;;;;;;;;;;;
2022/08/15 11:25:14;;;;;;;11.65;10.60;;;25.60;99.90;;;;;;5971878;24;20031;-83
2022/08/15 11:31:50;;;;;;;15.38;13.60;;;25.60;99.90;;;;;;6078593;23;20080;-76
2022/08/15 11:34:27;;;;;;;15.00;13.35;;;25.80;99.90;;;;;;6151772;23;20041;-79
2022/08/15 11:37:16;;;;;;;13.38;12.10;;;25.80;99.90;;;;;;6149771;23;20022;-81
2022/08/15 11:39:58;;;;;;;15.70;13.55;;;25.80;99.90;;;;;;6111665;23;20017;-80
2022/08/15 11:43:14;;;;;;;12.85;11.80;;;25.90;99.90;;;;;;6133815;23;20021;-80
2022/08/15 11:46:02;;;;;;;12.93;10.13;;;26.10;99.90;;;;;;6102955;23;20017;-81
2022/08/15 11:49:21;;;;;;;12.45;11.23;;;26.20;99.90;;;;;;6149562;23;20025;-78
2022/08/15 11:52:37;;;;;;;11.57;10.52;;;26.70;99.90;;;;;;6153488;23;20020;-79
2022/08/15 11:55:41;;;;;;;11.60;10.43;;;27.10;99.90;;;;;;6139390;23;20056;-82
2022/08/15 11:58:20;;;;;;;11.18;10.15;;;27.30;99.90;;;;;;6105904;23;20021;-81
2022/08/15 12:01:44;;;;;;;13.25;11.27;;;27.60;99.90;;;;;;6154748;23;20065;-79
2022/08/15 12:04:15;;;;;;;13.63;12.52;;;28.00;99.90;;;;;;6079444;23;20057;-78
2022/08/15 12:06:42;;;;;;;13.48;12.38;;;28.10;99.90;;;;;;6104720;23;20198;-80
2022/08/15 12:09:46;;;;;;;13.07;11.88;;;28.10;99.90;;;;;;6105534;23;20022;-82
2022/08/15 12:12:45;;;;;;;14.35;12.93;;;28.00;99.90;;;;;;6098136;23;20097;-80
2022/08/15 12:15:58;;;;;;;13.85;12.48;;;28.10;99.90;;;;;;6129747;23;20407;-82
2022/08/15 12:19:46;;;;;;;18.25;14.20;;;28.00;99.90;;;;;;6118745;23;20024;-81
2022/08/15 12:22:58;;;;;;;19.05;16.08;;;28.10;99.90;;;;;;6144610;23;20013;-83
2022/08/15 12:52:19;;;;;;;14.15;12.27;;;27.80;99.90;;;;;;5953839;24;20039;-83
2022/08/15 12:56:09;;;;;;;12.27;10.75;;;27.80;99.90;;;;;;5950539;24;20035;-82
2022/08/15 13:02:54;;;;;;;10.40;9.35;;;27.70;99.90;;;;;;5917023;24;20027;-82
2022/08/15 13:10:11;;;;;;;11.68;10.45;;;27.50;99.90;;;;;;5969896;24;20103;-83
2022/08/15 14:07:15;;;;;;;6.22;4.78;;;29.40;99.90;;;;;;5994401;23;20087;-79
2022/08/15 14:09:46;;;;;;;8.25;3.83;;;29.60;99.90;;;;;;5967768;23;20022;-80
2022/08/15 14:12:12;;;;;;;9.20;4.57;;;29.50;99.90;;;;;;6056604;23;20076;-80
2022/08/15 14:14:39;;;;;;;4.57;4.15;;;29.50;99.90;;;;;;6032213;23;20096;-80
2022/08/15 14:17:17;;;;;;;8.43;3.95;;;29.50;99.90;;;;;;6081239;23;20084;-79
2022/08/15 14:19:56;;;;;;;5.90;4.28;;;29.40;99.90;;;;;;6034157;23;20070;-80
2022/08/15 14:22:27;;;;;;;6.18;4.22;;;29.40;99.70;;;;;;6033179;23;20021;-81
2022/08/15 14:24:58;;;;;;;5.40;3.27;;;29.40;99.30;;;;;;6051913;23;20463;-80
2022/08/15 14:27:29;;;;;;;3.90;3.50;;;29.60;99.40;;;;;;6055813;23;20251;-80
2022/08/15 14:29:55;;;;;;;8.38;4.43;;;29.40;98.70;;;;;;6008544;23;20115;-81
2022/08/15 14:32:44;;;;;;;7.93;5.07;;;29.60;99.00;;;;;;6036169;23;20018;-81
2022/08/15 14:35:37;;;;;;;5.65;4.72;;;29.60;99.00;;;;;;6055483;23;20018;-81
2022/08/15 14:38:49;;;;;;;5.35;4.20;;;29.60;98.50;;;;;;6061577;23;20030;-82
2022/08/15 14:41:15;;;;;;;13.93;4.43;;;29.80;97.90;;;;;;6032959;23;20110;-81
2022/08/15 14:43:41;;;;;;;7.18;4.15;;;29.50;98.40;;;;;;6061212;23;20775;-81
2022/08/15 14:46:10;;;;;;;4.63;3.22;;;29.40;98.20;;;;;;6059430;23;20018;-81
2022/08/15 14:48:47;;;;;;;3.83;3.33;;;29.10;98.20;;;;;;6087382;23;20022;-80
2022/08/15 14:51:20;;;;;;;4.03;2.75;;;29.40;98.10;;;;;;6085246;23;20057;-80
2022/08/15 14:53:52;;;;;;;3.35;3.03;;;29.50;98.20;;;;;;6084384;23;20018;-82
2022/08/15 14:56:30;;;;;;;10.00;3.97;;;29.30;98.40;;;;;;6085669;23;20050;-80
2022/08/15 14:58:56;;;;;;;12.98;3.78;;;29.20;98.30;;;;;;6060224;23;20494;-81
2022/08/15 15:01:39;;;;;;;6.32;2.88;;;29.10;98.30;;;;;;6059223;23;20046;-82
2022/08/15 15:04:14;;;;;;;9.32;2.92;;;29.20;96.90;;;;;;6059930;23;20025;-82
2022/08/15 15:06:43;;;;;;;8.70;3.15;;;29.40;97.30;;;;;;6058348;23;20025;-81
2022/08/15 15:09:23;;;;;;;9.68;3.15;;;29.40;96.90;;;;;;6061087;23;20050;-82
2022/08/15 15:11:56;;;;;;;9.63;2.85;;;29.40;97.10;;;;;;6036011;23;20525;-81
2022/08/15 15:14:31;;;;;;;5.40;2.80;;;29.30;96.00;;;;;;6041769;23;20058;-80
2022/08/15 15:17:03;;;;;;;7.78;2.85;;;29.20;95.50;;;;;;6083503;23;20022;-82
2022/08/15 15:19:30;;;;;;;6.65;2.70;;;29.20;95.70;;;;;;6057711;23;20029;-81
2022/08/15 15:37:35;;;;;;;9.90;3.25;;;29.40;95.10;;;;;;6059913;23;20018;-84
2022/08/15 15:43:58;;;;;;;5.32;3.08;;;29.20;95.80;;;;;;5995669;23;20621;-83
2022/08/15 15:46:38;;;;;;;6.85;2.50;;;29.20;95.30;;;;;;5967288;24;20080;-82
2022/08/15 15:49:08;;;;;;;5.45;2.75;;;29.10;95.60;;;;;;5970007;24;20020;-82
2022/08/15 15:52:16;;;;;;;6.43;3.28;;;29.10;95.50;;;;;;5951933;23;20064;-82
2022/08/15 15:55:14;;;;;;;5.15;3.05;;;29.00;94.90;;;;;;5968575;23;20489;-82
2022/08/15 15:57:40;;;;;;;7.30;3.03;;;29.10;95.50;;;;;;6003172;23;20069;-82
2022/08/15 16:00:09;;;;;;;4.30;3.10;;;29.00;95.70;;;;;;6062603;23;20777;-82
2022/08/15 16:02:37;;;;;;;3.78;2.65;;;28.90;95.90;;;;;;6063848;23;20054;-83
2022/08/15 16:05:04;;;;;;;3.63;2.80;;;29.10;96.50;;;;;;6062821;23;20049;-81
2022/08/15 16:07:48;;;;;;;3.55;2.92;;;28.90;96.20;;;;;;6065519;23;20026;-82
2022/08/15 16:10:58;;;;;;;7.35;3.33;;;28.80;95.90;;;;;;6055506;23;20030;-83
2022/08/15 16:18:11;;;;;;;6.28;3.22;;;28.70;96.30;;;;;;6087289;23;20097;-84
2022/08/15 16:25:09;;;;;;;8.98;4.30;;;28.60;97.30;;;;;;6003799;23;20021;-83
2022/08/15 16:28:01;;;;;;;7.20;3.63;;;28.50;97.40;;;;;;6073314;23;20018;-82
2022/08/15 16:31:07;;;;;;;7.25;3.67;;;28.40;97.60;;;;;;6012619;23;20059;-82
2022/08/15 16:42:24;;;;;;;;;;;;;;;;;;;;;
2022/08/15 16:45:36;;;;;;;3.78;3.35;;;27.70;98.10;;;;;;5993259;23;20027;-84
2022/08/15 16:48:55;;;;;;;6.30;3.70;;;27.50;98.30;;;;;;6061668;23;20118;-83
2022/08/15 16:52:42;;;;;;;12.82;4.43;;;27.50;98.60;;;;;;6082120;23;20042;-82
2022/08/15 16:55:46;;;;;;;6.88;3.60;;;27.40;98.70;;;;;;6012756;23;20018;-82
2022/08/15 17:06:59;;;;;;;3.42;3.13;;;27.00;99.00;;;;;;5780322;24;20027;-84
2022/08/15 17:17:27;;;;;;;5.13;3.28;;;26.70;99.90;;;;;;5675185;25;20029;-83
2022/08/15 17:21:13;;;;;;;5.47;3.47;;;26.60;99.90;;;;;;5746388;24;20129;-84
2022/08/15 17:23:59;;;;;;;5.72;3.85;;;26.50;99.90;;;;;;5753804;24;20553;-82
2022/08/15 17:26:29;;;;;;;8.27;4.68;;;26.40;99.90;;;;;;5810735;24;20028;-82
2022/08/15 17:29:18;;;;;;;11.35;4.30;;;26.30;99.90;;;;;;5917887;24;20028;-82
2022/08/15 17:31:43;;;;;;;7.05;3.80;;;26.30;99.90;;;;;;6029146;23;20015;-82
2022/08/15 17:34:15;;;;;;;5.70;3.80;;;26.20;99.90;;;;;;6005777;23;20638;-82
2022/08/15 17:36:41;;;;;;;6.35;3.30;;;26.20;99.90;;;;;;6033081;23;20022;-82
2022/08/15 17:39:29;;;;;;;6.88;3.45;;;26.10;99.90;;;;;;6031376;23;20015;-81
2022/08/15 17:41:56;;;;;;;5.47;3.70;;;26.10;99.90;;;;;;6031652;23;20035;-82
2022/08/15 17:44:27;;;;;;;4.65;3.10;;;26.00;99.90;;;;;;6009166;23;20651;-85
2022/08/15 17:47:40;;;;;;;5.75;3.35;;;25.90;99.90;;;;;;6033514;23;20023;-82
2022/08/15 17:50:24;;;;;;;8.00;3.30;;;25.90;99.90;;;;;;5995364;23;20034;-82
2022/08/15 17:53:32;;;;;;;6.05;2.90;;;25.80;99.90;;;;;;6005107;23;20027;-82
2022/08/15 17:56:18;;;;;;;5.10;2.90;;;25.70;99.90;;;;;;6027090;23;20018;-82
2022/08/15 17:59:24;;;;;;;;;;;;;;;;;;;;;
2022/08/15 18:02:16;;;;;;;6.53;3.72;;;25.60;99.90;;;;;;6028002;23;20910;-83
2022/08/15 18:05:22;;;;;;;6.20;3.10;;;25.50;99.90;;;;;;6021241;23;20019;-83
2022/08/15 18:07:52;;;;;;;4.15;2.85;;;25.30;99.90;;;;;;6018057;23;20062;-82
2022/08/15 18:10:25;;;;;;;7.43;2.75;;;25.30;99.90;;;;;;6026708;23;20352;-83
2022/08/15 18:13:33;;;;;;;5.63;3.17;;;25.20;99.90;;;;;;6028701;23;20030;-82
2022/08/15 18:16:22;;;;;;;3.90;3.10;;;25.10;99.90;;;;;;6032488;23;20022;-82
2022/08/15 18:19:05;;;;;;;5.90;3.20;;;25.00;99.90;;;;;;6027161;23;20065;-82
2022/08/15 18:21:44;;;;;;;5.30;3.20;;;24.90;99.90;;;;;;6003684;23;20026;-82
2022/08/15 18:24:44;;;;;;;7.22;2.95;;;25.00;99.90;;;;;;6004956;23;20030;-82
2022/08/15 18:27:23;;;;;;;;;;;24.80;99.90;;;;;;6026698;23;20019;-81
2022/08/15 18:33:42;;;;;;;13.32;3.00;;;24.60;99.90;;;;;;6035481;23;20054;-83
2022/08/15 18:37:01;;;;;;;6.18;2.83;;;24.60;99.90;;;;;;6000146;23;20023;-83
2022/08/15 18:43:33;;;;;;;4.55;3.50;;;24.20;99.90;;;;;;6048119;23;20019;-81
2022/08/15 18:46:11;;;;;;;8.05;3.05;;;24.20;99.90;;;;;;6025490;23;20026;-81
2022/08/15 18:49:03;;;;;;;6.20;3.80;;;24.10;99.90;;;;;;6001296;23;20019;-80
2022/08/15 18:51:44;;;;;;;14.32;4.68;;;24.10;99.90;;;;;;6004351;23;20603;-80
2022/08/15 18:54:20;;;;;;;6.30;3.83;;;23.90;99.90;;;;;;6027925;23;20023;-81
2022/08/15 18:57:02;;;;;;;9.25;4.32;;;23.90;99.90;;;;;;6023889;23;20030;-81
2022/08/15 18:59:35;;;;;;;5.80;4.25;;;23.80;99.90;;;;;;6027785;23;20019;-81